Kapitan Kyuseling — UVLH — position and weather

sailwx.info

Track history (hours):
 
Tides and Currents Weather Stations Pressure Air Temp Water Temp Dewpoint Dewpoint Depression Visibility Wind Speed Wind Dir Waves Ship Positions

Kapitan Kyuseling

Last reported at 2018-Feb-17 05:14 UTC. Time now 2018-Feb-25 14:00 UTC.
Position N 44°22' E 028°02'.
Warning: this ship's position is 8 days out of date.

Length 256 m; draft 1.5 m.

Type: Ship. MMSI: 272040300.

Date/timePositionNaut miles runAvg speedWind from/ knotsBaromVisibWave heightAir tempDewpointWater temp
2018-Feb-17 05:14N 44°22' E 028°02'0 0.0
2018-Feb-16 18:30N 44°22' E 028°02'0 0.1
2018-Feb-16 16:35N 44°22' E 028°02'0 0.5
2018-Feb-16 16:19N 44°22' E 028°02'6 2.7
2018-Feb-16 14:04N 44°17' E 028°05'0 4.7
2018-Feb-16 14:00N 44°16' E 028°05'2 4.8
2018-Feb-16 13:30N 44°16' E 028°09'2 4.8
2018-Feb-16 13:00N 44°16' E 028°12'2 4.7
2018-Feb-16 12:29N 44°15' E 028°15'2 4.8
2018-Feb-16 12:00N 44°15' E 028°19'2 4.5
2018-Feb-16 11:30N 44°14' E 028°22'2 4.8
2018-Feb-16 10:59N 44°12' E 028°23'2 4.7
2018-Feb-16 10:30N 44°10' E 028°25'4 4.6
2018-Feb-16 09:45N 44°07' E 028°27'1 4.6
2018-Feb-16 09:26N 44°06' E 028°28'2 4.6
2018-Feb-16 08:58N 44°06' E 028°31'2 4.8
2018-Feb-16 08:30N 44°06' E 028°34'2 4.1
2018-Feb-16 08:01N 44°06' E 028°37'0 0.2
2018-Feb-16 07:30N 44°06' E 028°37'1 2.1
2018-Feb-16 07:01N 44°06' E 028°39'1 2.3
2018-Feb-16 06:30N 44°07' E 028°39'0 0.0
2018-Feb-16 06:00N 44°07' E 028°39'0 0.0
2018-Feb-16 05:31N 44°07' E 028°39'0 0.0
2018-Feb-16 05:01N 44°07' E 028°39'0 0.0
2018-Feb-16 04:30N 44°07' E 028°39'1 1.1
2018-Feb-16 04:01N 44°07' E 028°39'0 0.0
2018-Feb-16 03:30N 44°07' E 028°39'0 0.0
2018-Feb-16 03:00N 44°07' E 028°39'0 0.0
2018-Feb-16 02:30N 44°07' E 028°39'0 0.0
2018-Feb-16 02:00N 44°07' E 028°39'0 0.0
2018-Feb-16 01:30N 44°07' E 028°39'0 0.0
2018-Feb-16 01:00N 44°07' E 028°39'0 0.0
2018-Feb-16 00:30N 44°07' E 028°39'0 0.0
2018-Feb-16 00:00N 44°07' E 028°39'0 0.0
2018-Feb-15 23:30N 44°07' E 028°39'1 1.3
2018-Feb-15 22:59N 44°06' E 028°39'0 0.0
2018-Feb-15 22:29N 44°06' E 028°39'0 0.0
2018-Feb-15 21:59N 44°06' E 028°39'0 0.0
2018-Feb-15 21:29N 44°06' E 028°39'0 0.0
2018-Feb-15 20:59N 44°06' E 028°39'0 0.0
2018-Feb-15 20:29N 44°06' E 028°39'0 0.0
2018-Feb-15 19:59N 44°06' E 028°39'0 0.0
2018-Feb-15 19:29N 44°06' E 028°39'0 0.0
2018-Feb-15 18:56N 44°06' E 028°39'0 0.0
2018-Feb-15 18:29N 44°06' E 028°39'0 0.0
2018-Feb-15 17:59N 44°06' E 028°39'0 0.0
2018-Feb-15 17:29N 44°06' E 028°39'0 0.0
2018-Feb-15 16:59N 44°06' E 028°39'1 1.1
2018-Feb-15 16:22N 44°07' E 028°39'0 0.0
2018-Feb-15 15:58N 44°07' E 028°39'0 0.0
2018-Feb-15 15:28N 44°07' E 028°39'0 0.0
2018-Feb-15 14:55N 44°07' E 028°39'0 0.0
2018-Feb-15 14:28N 44°07' E 028°39'0 0.0
2018-Feb-15 13:55N 44°07' E 028°39'0 0.0
2018-Feb-15 13:28N 44°07' E 028°39'0 0.0
2018-Feb-15 12:58N 44°07' E 028°39'0 0.0
2018-Feb-15 12:28N 44°07' E 028°39'0 0.0
2018-Feb-15 11:58N 44°07' E 028°39'0 0.0
2018-Feb-15 11:28N 44°07' E 028°39'0 0.0
2018-Feb-15 10:58N 44°07' E 028°39'0 0.0
2018-Feb-15 10:28N 44°07' E 028°39'0 0.0
2018-Feb-15 09:58N 44°07' E 028°39'0 0.0
2018-Feb-15 09:28N 44°07' E 028°39'0 0.0
2018-Feb-15 08:55N 44°07' E 028°39'0 0.0
2018-Feb-15 08:28N 44°07' E 028°39'0 0.0
2018-Feb-15 07:58N 44°07' E 028°39'0 0.0
2018-Feb-15 07:28N 44°07' E 028°39'0 0.0
2018-Feb-15 06:58N 44°07' E 028°39'0 0.0
2018-Feb-15 06:25N 44°07' E 028°39'0 0.0
2018-Feb-15 05:58N 44°07' E 028°39'0 0.0
2018-Feb-15 05:28N 44°07' E 028°39'0 0.0
2018-Feb-15 04:58N 44°07' E 028°39'0 0.0
2018-Feb-15 04:28N 44°07' E 028°39'0 0.0
2018-Feb-15 03:58N 44°07' E 028°39'0 0.0
2018-Feb-15 03:28N 44°07' E 028°39'0 0.0
2018-Feb-15 02:58N 44°07' E 028°39'0 0.0
2018-Feb-15 02:28N 44°07' E 028°39'0 0.0
2018-Feb-15 01:55N 44°07' E 028°39'0 0.0
2018-Feb-15 01:28N 44°07' E 028°39'0 0.2
2018-Feb-15 01:00N 44°07' E 028°39'0 0.7
2018-Feb-15 00:30N 44°07' E 028°39'0 0.0
2018-Feb-15 00:00N 44°07' E 028°39'0 0.8
2018-Feb-14 23:30N 44°07' E 028°39'2 3.0
2018-Feb-14 23:00N 44°06' E 028°37'0 0.2
2018-Feb-14 22:30N 44°06' E 028°37'1 2.9
2018-Feb-14 22:00N 44°06' E 028°35'3 5.0
2018-Feb-14 21:29N 44°06' E 028°31'5 4.2
2018-Feb-14 20:17N 44°09' E 028°26'1 5.0
2018-Feb-14 20:00N 44°10' E 028°25'2 4.9
2018-Feb-14 19:30N 44°12' E 028°23'2 5.0
2018-Feb-14 19:00N 44°14' E 028°21'2 4.6
2018-Feb-14 18:30N 44°15' E 028°18'3 5.0
2018-Feb-14 18:00N 44°15' E 028°15'2 4.9
2018-Feb-14 17:30N 44°16' E 028°11'3 5.1
2018-Feb-14 16:59N 44°16' E 028°08'  
2018-Feb-10 11:41N 44°31' E 022°12'1 5.5
2018-Feb-10 11:30N 44°30' E 022°12'2 4.8
2018-Feb-10 11:00N 44°28' E 022°10'2 4.9
2018-Feb-10 10:30N 44°29' E 022°06'3 5.0
2018-Feb-10 10:00N 44°31' E 022°04'3 5.1
2018-Feb-10 09:31N 44°33' E 022°02'3 5.2
2018-Feb-10 09:01N 44°36' E 022°01'15 5.5
2018-Feb-10 06:20N 44°40' E 021°41'1 3.3
2018-Feb-10 06:00N 44°41' E 021°40'9 1.2
2018-Feb-09 22:56N 44°46' E 021°31'11 2.3
2018-Feb-09 18:00N 44°48' E 021°15'3 5.5
2018-Feb-09 17:30N 44°46' E 021°12'3 5.8
2018-Feb-09 17:00N 44°44' E 021°09'8 5.1
2018-Feb-09 15:30N 44°42' E 020°58'0 0.1
2018-Feb-09 14:30N 44°42' E 020°58'0 0.0
2018-Feb-09 13:00N 44°42' E 020°58'0 0.4
2018-Feb-09 12:30N 44°42' E 020°58'17 1.2
2018-Feb-08 22:30N 44°51' E 020°38'79 2.1
2018-Feb-07 09:28N 45°29' E 018°60'2 5.3
2018-Feb-07 09:00N 45°29' E 019°03'3 5.8
2018-Feb-07 08:30N 45°31' E 019°06'3 6.3
2018-Feb-07 08:00N 45°32' E 019°02'2 4.4
2018-Feb-07 07:30N 45°32' E 018°59'3 6.4
2018-Feb-07 07:00N 45°33' E 018°55'2 4.8
2018-Feb-07 06:30N 45°36' E 018°55'3 5.5
2018-Feb-07 06:00N 45°38' E 018°56'2 5.0
2018-Feb-07 05:30N 45°41' E 018°57'  
Track history (hours):
 
Tides and Currents Weather Stations Pressure Air Temp Water Temp Dewpoint Dewpoint Depression Visibility Wind Speed Wind Dir Waves Ship Positions

Kapitan Kyuseling

Last reported at 2018-Feb-17 05:14 UTC. Time now 2018-Feb-25 14:00 UTC.
Position N 44°22' E 028°02'.
Warning: this ship's position is 8 days out of date.

Length 256 m; draft 1.5 m.

Type: Ship. MMSI: 272040300.

Date/timePositionNaut miles runAvg speedWind from/ knotsBaromVisibWave heightAir tempDewpointWater temp
2018-Feb-17 05:14N 44°22' E 028°02'0 0.0
2018-Feb-16 18:30N 44°22' E 028°02'0 0.1
2018-Feb-16 16:35N 44°22' E 028°02'0 0.5
2018-Feb-16 16:19N 44°22' E 028°02'6 2.7
2018-Feb-16 14:04N 44°17' E 028°05'0 4.7
2018-Feb-16 14:00N 44°16' E 028°05'2 4.8
2018-Feb-16 13:30N 44°16' E 028°09'2 4.8
2018-Feb-16 13:00N 44°16' E 028°12'2 4.7
2018-Feb-16 12:29N 44°15' E 028°15'2 4.8
2018-Feb-16 12:00N 44°15' E 028°19'2 4.5
2018-Feb-16 11:30N 44°14' E 028°22'2 4.8
2018-Feb-16 10:59N 44°12' E 028°23'2 4.7
2018-Feb-16 10:30N 44°10' E 028°25'4 4.6
2018-Feb-16 09:45N 44°07' E 028°27'1 4.6
2018-Feb-16 09:26N 44°06' E 028°28'2 4.6
2018-Feb-16 08:58N 44°06' E 028°31'2 4.8
2018-Feb-16 08:30N 44°06' E 028°34'2 4.1
2018-Feb-16 08:01N 44°06' E 028°37'0 0.2
2018-Feb-16 07:30N 44°06' E 028°37'1 2.1
2018-Feb-16 07:01N 44°06' E 028°39'1 2.3
2018-Feb-16 06:30N 44°07' E 028°39'0 0.0
2018-Feb-16 06:00N 44°07' E 028°39'0 0.0
2018-Feb-16 05:31N 44°07' E 028°39'0 0.0
2018-Feb-16 05:01N 44°07' E 028°39'0 0.0
2018-Feb-16 04:30N 44°07' E 028°39'1 1.1
2018-Feb-16 04:01N 44°07' E 028°39'0 0.0
2018-Feb-16 03:30N 44°07' E 028°39'0 0.0
2018-Feb-16 03:00N 44°07' E 028°39'0 0.0
2018-Feb-16 02:30N 44°07' E 028°39'0 0.0
2018-Feb-16 02:00N 44°07' E 028°39'0 0.0
2018-Feb-16 01:30N 44°07' E 028°39'0 0.0
2018-Feb-16 01:00N 44°07' E 028°39'0 0.0
2018-Feb-16 00:30N 44°07' E 028°39'0 0.0
2018-Feb-16 00:00N 44°07' E 028°39'0 0.0
2018-Feb-15 23:30N 44°07' E 028°39'1 1.3
2018-Feb-15 22:59N 44°06' E 028°39'0 0.0
2018-Feb-15 22:29N 44°06' E 028°39'0 0.0
2018-Feb-15 21:59N 44°06' E 028°39'0 0.0
2018-Feb-15 21:29N 44°06' E 028°39'0 0.0
2018-Feb-15 20:59N 44°06' E 028°39'0 0.0
2018-Feb-15 20:29N 44°06' E 028°39'0 0.0
2018-Feb-15 19:59N 44°06' E 028°39'0 0.0
2018-Feb-15 19:29N 44°06' E 028°39'0 0.0
2018-Feb-15 18:56N 44°06' E 028°39'0 0.0
2018-Feb-15 18:29N 44°06' E 028°39'0 0.0
2018-Feb-15 17:59N 44°06' E 028°39'0 0.0
2018-Feb-15 17:29N 44°06' E 028°39'0 0.0
2018-Feb-15 16:59N 44°06' E 028°39'1 1.1
2018-Feb-15 16:22N 44°07' E 028°39'0 0.0
2018-Feb-15 15:58N 44°07' E 028°39'0 0.0
2018-Feb-15 15:28N 44°07' E 028°39'0 0.0
2018-Feb-15 14:55N 44°07' E 028°39'0 0.0
2018-Feb-15 14:28N 44°07' E 028°39'0 0.0
2018-Feb-15 13:55N 44°07' E 028°39'0 0.0
2018-Feb-15 13:28N 44°07' E 028°39'0 0.0
2018-Feb-15 12:58N 44°07' E 028°39'0 0.0
2018-Feb-15 12:28N 44°07' E 028°39'0 0.0
2018-Feb-15 11:58N 44°07' E 028°39'0 0.0
2018-Feb-15 11:28N 44°07' E 028°39'0 0.0
2018-Feb-15 10:58N 44°07' E 028°39'0 0.0
2018-Feb-15 10:28N 44°07' E 028°39'0 0.0
2018-Feb-15 09:58N 44°07' E 028°39'0 0.0
2018-Feb-15 09:28N 44°07' E 028°39'0 0.0
2018-Feb-15 08:55N 44°07' E 028°39'0 0.0
2018-Feb-15 08:28N 44°07' E 028°39'0 0.0
2018-Feb-15 07:58N 44°07' E 028°39'0 0.0
2018-Feb-15 07:28N 44°07' E 028°39'0 0.0
2018-Feb-15 06:58N 44°07' E 028°39'0 0.0
2018-Feb-15 06:25N 44°07' E 028°39'0 0.0
2018-Feb-15 05:58N 44°07' E 028°39'0 0.0
2018-Feb-15 05:28N 44°07' E 028°39'0 0.0
2018-Feb-15 04:58N 44°07' E 028°39'0 0.0
2018-Feb-15 04:28N 44°07' E 028°39'0 0.0
2018-Feb-15 03:58N 44°07' E 028°39'0 0.0
2018-Feb-15 03:28N 44°07' E 028°39'0 0.0
2018-Feb-15 02:58N 44°07' E 028°39'0 0.0
2018-Feb-15 02:28N 44°07' E 028°39'0 0.0
2018-Feb-15 01:55N 44°07' E 028°39'0 0.0
2018-Feb-15 01:28N 44°07' E 028°39'0 0.2
2018-Feb-15 01:00N 44°07' E 028°39'0 0.7
2018-Feb-15 00:30N 44°07' E 028°39'0 0.0
2018-Feb-15 00:00N 44°07' E 028°39'0 0.8
2018-Feb-14 23:30N 44°07' E 028°39'2 3.0
2018-Feb-14 23:00N 44°06' E 028°37'0 0.2
2018-Feb-14 22:30N 44°06' E 028°37'1 2.9
2018-Feb-14 22:00N 44°06' E 028°35'3 5.0
2018-Feb-14 21:29N 44°06' E 028°31'5 4.2
2018-Feb-14 20:17N 44°09' E 028°26'1 5.0
2018-Feb-14 20:00N 44°10' E 028°25'2 4.9
2018-Feb-14 19:30N 44°12' E 028°23'2 5.0
2018-Feb-14 19:00N 44°14' E 028°21'2 4.6
2018-Feb-14 18:30N 44°15' E 028°18'3 5.0
2018-Feb-14 18:00N 44°15' E 028°15'2 4.9
2018-Feb-14 17:30N 44°16' E 028°11'3 5.1
2018-Feb-14 16:59N 44°16' E 028°08'  
2018-Feb-10 11:41N 44°31' E 022°12'1 5.5
2018-Feb-10 11:30N 44°30' E 022°12'2 4.8
2018-Feb-10 11:00N 44°28' E 022°10'2 4.9
2018-Feb-10 10:30N 44°29' E 022°06'3 5.0
2018-Feb-10 10:00N 44°31' E 022°04'3 5.1
2018-Feb-10 09:31N 44°33' E 022°02'3 5.2
2018-Feb-10 09:01N 44°36' E 022°01'15 5.5
2018-Feb-10 06:20N 44°40' E 021°41'1 3.3
2018-Feb-10 06:00N 44°41' E 021°40'9 1.2
2018-Feb-09 22:56N 44°46' E 021°31'11 2.3
2018-Feb-09 18:00N 44°48' E 021°15'3 5.5
2018-Feb-09 17:30N 44°46' E 021°12'3 5.8
2018-Feb-09 17:00N 44°44' E 021°09'8 5.1
2018-Feb-09 15:30N 44°42' E 020°58'0 0.1
2018-Feb-09 14:30N 44°42' E 020°58'0 0.0
2018-Feb-09 13:00N 44°42' E 020°58'0 0.4
2018-Feb-09 12:30N 44°42' E 020°58'17 1.2
2018-Feb-08 22:30N 44°51' E 020°38'79 2.1
2018-Feb-07 09:28N 45°29' E 018°60'2 5.3
2018-Feb-07 09:00N 45°29' E 019°03'3 5.8
2018-Feb-07 08:30N 45°31' E 019°06'3 6.3
2018-Feb-07 08:00N 45°32' E 019°02'2 4.4
2018-Feb-07 07:30N 45°32' E 018°59'3 6.4
2018-Feb-07 07:00N 45°33' E 018°55'2 4.8
2018-Feb-07 06:30N 45°36' E 018°55'3 5.5
2018-Feb-07 06:00N 45°38' E 018°56'2 5.0
2018-Feb-07 05:30N 45°41' E 018°57'  

Dump ship's entire track history